Time;durP1;ratioP1;P1;durP2;ratioP2;P2;SDS_P1;SDS_P2;PMS_P1;PMS_P2;Temp;Humidity;BMP_temperature;BMP_pressure;BME280_temperature;BME280_humidity;BME280_pressure;Samples;Min_cycle;Max_cycle;Signal;HPM_P1;HPM_P2
2022/08/19 00:01:48;;;;;;;63.97;39.07;;;19.10;99.90;;;;;;6103387;23;20171;-93
2022/08/19 00:04:24;;;;;;;69.17;39.23;;;19.00;99.90;;;;;;6102788;23;20268;-94
2022/08/19 00:07:27;;;;;;;66.37;40.27;;;19.00;99.90;;;;;;6103289;23;20597;-92
2022/08/19 00:09:58;;;;;;;66.90;40.10;;;19.00;99.90;;;;;;6117479;23;20185;-93
2022/08/19 00:12:28;;;;;;;67.37;40.17;;;18.90;99.90;;;;;;6104145;23;20159;-93
2022/08/19 00:14:57;;;;;;;70.03;41.53;;;18.80;99.90;;;;;;6104729;23;20578;-94
2022/08/19 00:17:25;;;;;;;71.90;41.50;;;18.80;99.90;;;;;;6128980;23;20195;-93
2022/08/19 00:19:54;;;;;;;75.00;41.27;;;18.70;99.90;;;;;;6104142;23;20222;-92
2022/08/19 00:22:23;;;;;;;72.23;41.77;;;18.70;99.90;;;;;;6103191;23;20163;-93
2022/08/19 00:24:52;;;;;;;76.37;42.10;;;18.70;99.90;;;;;;6103282;23;20199;-93
2022/08/19 00:27:26;;;;;;;68.47;41.20;;;18.70;99.90;;;;;;6102688;23;20190;-92
2022/08/19 00:29:55;;;;;;;71.03;41.93;;;18.60;99.90;;;;;;6126948;23;20190;-92
2022/08/19 00:32:24;;;;;;;72.27;40.67;;;18.60;99.90;;;;;;6102618;23;20167;-93
2022/08/19 00:34:54;;;;;;;67.60;40.80;;;18.50;99.90;;;;;;6103140;23;20219;-92
2022/08/19 00:37:26;;;;;;;71.37;42.37;;;18.40;99.90;;;;;;6126869;23;20175;-92
2022/08/19 00:39:56;;;;;;;70.03;39.27;;;18.40;99.90;;;;;;6126824;23;20246;-92
2022/08/19 00:42:28;;;;;;;73.17;40.43;;;18.30;99.90;;;;;;6127021;23;20175;-92
2022/08/19 00:44:56;;;;;;;73.73;41.83;;;18.30;99.90;;;;;;6102690;23;20266;-93
2022/08/19 00:47:25;;;;;;;67.50;38.70;;;18.20;99.90;;;;;;6102554;23;20171;-92
2022/08/19 00:50:00;;;;;;;67.93;39.10;;;18.20;99.90;;;;;;6101994;23;20175;-92
2022/08/19 00:52:33;;;;;;;70.43;40.23;;;18.10;99.90;;;;;;6127103;23;20222;-92
2022/08/19 00:55:09;;;;;;;77.00;42.70;;;18.10;99.90;;;;;;6127122;23;20608;-92
2022/08/19 00:57:48;;;;;;;80.43;43.23;;;18.10;99.90;;;;;;6102216;23;20230;-92
2022/08/19 01:00:20;;;;;;;77.33;41.93;;;18.10;99.90;;;;;;6078416;23;20185;-92
2022/08/19 01:02:54;;;;;;;64.10;38.00;;;18.10;99.90;;;;;;6102478;23;20474;-92
2022/08/19 01:05:27;;;;;;;63.37;37.73;;;18.10;99.90;;;;;;6078969;23;20202;-92
2022/08/19 01:21:16;;;;;;;55.00;31.53;;;18.00;99.90;;;;;;6082436;23;20258;-93
2022/08/19 01:23:47;;;;;;;51.30;31.23;;;18.00;99.90;;;;;;6083222;23;20230;-92
2022/08/19 01:26:21;;;;;;;55.90;32.97;;;18.00;99.90;;;;;;6085090;23;20191;-93
2022/08/19 01:28:53;;;;;;;51.97;31.77;;;17.90;99.90;;;;;;6084246;23;20605;-92
2022/08/19 01:31:31;;;;;;;54.50;32.17;;;17.90;99.90;;;;;;6083783;23;20190;-91
2022/08/19 01:34:04;;;;;;;50.23;29.33;;;17.80;99.90;;;;;;6080184;23;20178;-92
2022/08/19 01:36:41;;;;;;;43.83;27.33;;;17.80;99.90;;;;;;6080354;23;20173;-93
2022/08/19 01:39:13;;;;;;;40.63;25.53;;;17.80;99.90;;;;;;6078163;23;20198;-93
2022/08/19 01:41:42;;;;;;;42.33;25.03;;;17.80;99.90;;;;;;6102602;23;20175;-94
2022/08/19 01:44:11;;;;;;;40.03;25.43;;;17.80;99.90;;;;;;6102282;23;20222;-94
2022/08/19 01:46:49;;;;;;;34.33;22.67;;;17.70;99.90;;;;;;6127920;23;20143;-93
2022/08/19 01:49:19;;;;;;;38.47;23.27;;;17.70;99.90;;;;;;6102000;23;20172;-92
2022/08/19 01:51:49;;;;;;;40.93;23.70;;;17.70;99.90;;;;;;6102115;23;20256;-93
2022/08/19 01:54:20;;;;;;;41.50;24.37;;;17.70;99.90;;;;;;6101678;23;20261;-93
2022/08/19 01:57:03;;;;;;;35.67;24.13;;;17.70;99.90;;;;;;6077725;23;20235;-93
2022/08/19 01:59:33;;;;;;;37.83;23.57;;;17.60;99.90;;;;;;6097141;23;20229;-92
2022/08/19 02:02:02;;;;;;;35.73;23.07;;;17.50;99.90;;;;;;6101821;23;20636;-93
2022/08/19 02:04:30;;;;;;;38.57;24.10;;;17.50;99.90;;;;;;6102155;23;20251;-92
2022/08/19 02:06:59;;;;;;;37.27;22.77;;;17.40;99.90;;;;;;6125954;23;20545;-94
2022/08/19 02:09:29;;;;;;;38.97;23.47;;;17.40;99.90;;;;;;6126096;23;20243;-92
2022/08/19 02:11:58;;;;;;;35.87;22.57;;;17.30;99.90;;;;;;6101319;23;20196;-91
2022/08/19 02:14:26;;;;;;;39.47;23.37;;;17.30;99.90;;;;;;6126313;23;20176;-92
2022/08/19 02:16:55;;;;;;;40.30;22.20;;;17.30;99.90;;;;;;6125909;23;20246;-91
2022/08/19 02:19:27;;;;;;;39.03;22.07;;;17.20;99.90;;;;;;6125801;23;20660;-93
2022/08/19 02:21:56;;;;;;;41.20;22.47;;;17.20;99.90;;;;;;6101538;23;20174;-92
2022/08/19 02:24:25;;;;;;;42.57;23.33;;;17.30;99.90;;;;;;6126259;23;20167;-92
2022/08/19 02:26:55;;;;;;;37.13;21.87;;;17.30;99.90;;;;;;6125515;23;20195;-92
2022/08/19 02:29:24;;;;;;;33.50;20.27;;;17.30;99.90;;;;;;6126457;23;20197;-93
2022/08/19 02:31:53;;;;;;;39.80;21.20;;;17.30;99.90;;;;;;6126187;23;20184;-92
2022/08/19 02:34:21;;;;;;;39.00;21.57;;;17.30;99.90;;;;;;6101319;23;20171;-93
2022/08/19 02:36:53;;;;;;;36.60;21.63;;;17.30;99.90;;;;;;6126802;23;20163;-92
2022/08/19 02:39:20;;;;;;;40.77;21.73;;;17.20;99.90;;;;;;6125701;23;20602;-94
2022/08/19 02:41:51;;;;;;;40.90;23.10;;;17.20;99.90;;;;;;6126108;23;20171;-91
2022/08/19 02:44:21;;;;;;;41.30;22.20;;;17.20;99.90;;;;;;6103332;23;20275;-92
2022/08/19 02:46:57;;;;;;;36.63;21.50;;;17.20;99.90;;;;;;6127839;23;20704;-92
2022/08/19 02:49:26;;;;;;;36.37;20.97;;;17.20;99.90;;;;;;6103133;23;20198;-92
2022/08/19 02:51:55;;;;;;;38.93;22.20;;;17.20;99.90;;;;;;6103677;23;20176;-93
2022/08/19 02:54:23;;;;;;;37.93;22.60;;;17.10;99.90;;;;;;6103128;23;20178;-92
2022/08/19 02:56:52;;;;;;;35.77;22.33;;;17.10;99.90;;;;;;6103187;23;20166;-91
2022/08/19 02:59:22;;;;;;;36.60;21.87;;;17.10;99.90;;;;;;6151615;23;20642;-93
2022/08/19 03:01:54;;;;;;;38.50;21.03;;;17.10;99.90;;;;;;6103720;23;20166;-93
2022/08/19 03:04:22;;;;;;;39.07;21.30;;;17.00;99.90;;;;;;6103205;23;20154;-93
2022/08/19 03:06:54;;;;;;;40.83;22.70;;;17.00;99.90;;;;;;6103088;23;20193;-92
2022/08/19 03:09:29;;;;;;;38.40;19.77;;;17.00;99.90;;;;;;6103173;23;20172;-93
2022/08/19 03:11:58;;;;;;;38.57;20.03;;;17.00;99.90;;;;;;6103356;23;20646;-92
2022/08/19 03:14:33;;;;;;;37.63;21.10;;;17.00;99.90;;;;;;6103553;23;20274;-93
2022/08/19 03:17:03;;;;;;;40.10;20.60;;;16.90;99.90;;;;;;6103153;23;20547;-93
2022/08/19 03:19:35;;;;;;;37.07;20.30;;;16.90;99.90;;;;;;6127218;23;20173;-92
2022/08/19 03:22:04;;;;;;;33.60;19.37;;;16.90;99.90;;;;;;6103479;23;20192;-91
2022/08/19 03:24:33;;;;;;;37.27;20.17;;;16.90;99.90;;;;;;6127919;23;20174;-91
2022/08/19 03:27:04;;;;;;;33.43;18.70;;;16.80;99.90;;;;;;6127356;23;20195;-93
2022/08/19 03:29:39;;;;;;;34.73;19.17;;;16.80;99.90;;;;;;6102900;23;20257;-92
2022/08/19 03:32:12;;;;;;;34.70;18.80;;;16.80;99.90;;;;;;6102954;23;20246;-93
2022/08/19 03:35:03;;;;;;;30.63;17.63;;;16.80;99.90;;;;;;6103440;23;20178;-92
2022/08/19 03:37:32;;;;;;;30.83;18.03;;;16.80;99.90;;;;;;6102540;23;20258;-92
2022/08/19 03:40:03;;;;;;;33.43;18.30;;;16.80;99.90;;;;;;6127358;23;20181;-91
2022/08/19 03:42:31;;;;;;;27.93;17.20;;;16.70;99.90;;;;;;6103010;23;20162;-92
2022/08/19 03:45:19;;;;;;;35.83;18.50;;;16.70;99.90;;;;;;6127367;23;20207;-93
2022/08/19 03:47:47;;;;;;;34.00;18.13;;;16.70;99.90;;;;;;6103513;23;20226;-93
2022/08/19 03:50:19;;;;;;;32.97;17.43;;;16.70;99.90;;;;;;6127404;23;20175;-92
2022/08/19 03:52:51;;;;;;;28.57;16.57;;;16.60;99.90;;;;;;6128601;23;20229;-92
2022/08/19 03:55:22;;;;;;;29.03;17.73;;;16.60;99.90;;;;;;6127866;23;20253;-92
2022/08/19 03:57:54;;;;;;;30.43;17.13;;;16.50;99.90;;;;;;6105891;23;20585;-93
2022/08/19 04:00:27;;;;;;;30.70;17.30;;;16.50;99.90;;;;;;6105322;23;20167;-92
2022/08/19 04:03:29;;;;;;;33.63;16.60;;;16.50;99.90;;;;;;6131648;23;20591;-93
2022/08/19 04:05:58;;;;;;;31.60;18.13;;;16.50;99.90;;;;;;6079351;23;20197;-91
2022/08/19 04:08:29;;;;;;;30.97;17.17;;;16.50;99.90;;;;;;6103269;23;20174;-92
2022/08/19 04:10:58;;;;;;;28.47;16.90;;;16.40;99.90;;;;;;6078502;23;20231;-93
2022/08/19 04:13:27;;;;;;;28.13;17.13;;;16.40;99.90;;;;;;6102721;23;20190;-93
2022/08/19 04:15:57;;;;;;;35.10;16.87;;;16.40;99.90;;;;;;6102520;23;20185;-92
2022/08/19 04:18:29;;;;;;;32.20;15.73;;;16.30;99.90;;;;;;6103294;23;20157;-92
2022/08/19 04:21:04;;;;;;;29.73;17.07;;;16.40;99.90;;;;;;6102185;23;20167;-92
2022/08/19 04:23:33;;;;;;;33.07;17.53;;;16.40;99.90;;;;;;6102083;23;20183;-92
2022/08/19 04:26:02;;;;;;;33.63;18.20;;;16.30;99.90;;;;;;6101504;23;20290;-92
2022/08/19 04:28:32;;;;;;;28.40;15.97;;;16.30;99.90;;;;;;6078573;23;20173;-94
2022/08/19 04:31:02;;;;;;;33.20;18.00;;;16.30;99.90;;;;;;6077930;23;20523;-92
2022/08/19 04:33:31;;;;;;;34.07;18.10;;;16.30;99.90;;;;;;6102326;23;20175;-91
2022/08/19 04:35:59;;;;;;;31.50;18.50;;;16.20;99.90;;;;;;6102035;23;20584;-94
2022/08/19 04:38:28;;;;;;;30.50;19.03;;;16.20;99.90;;;;;;6126953;23;20159;-92
2022/08/19 04:43:44;;;;;;;27.70;18.10;;;16.10;99.90;;;;;;6102180;23;20176;-91
2022/08/19 04:46:15;;;;;;;35.53;18.80;;;16.10;99.90;;;;;;6078622;23;20491;-92
2022/08/19 04:49:06;;;;;;;37.30;18.50;;;16.10;99.90;;;;;;6101931;23;20534;-93
2022/08/19 04:51:43;;;;;;;32.03;17.87;;;16.10;99.90;;;;;;6077331;23;20175;-92
2022/08/19 04:54:13;;;;;;;31.70;18.87;;;16.10;99.90;;;;;;6078160;23;20170;-93
2022/08/19 04:57:06;;;;;;;35.47;17.97;;;16.00;99.90;;;;;;6077945;23;20201;-93
2022/08/19 04:59:36;;;;;;;27.07;16.57;;;16.00;99.90;;;;;;6122736;23;20200;-93
2022/08/19 05:02:07;;;;;;;31.10;18.43;;;16.00;99.90;;;;;;6101651;23;20172;-92
2022/08/19 05:04:38;;;;;;;34.77;17.80;;;16.00;99.90;;;;;;6126883;23;20165;-92
2022/08/19 05:07:09;;;;;;;38.73;18.60;;;16.00;99.90;;;;;;6100967;23;20196;-92
2022/08/19 05:09:38;;;;;;;30.27;18.10;;;16.00;99.90;;;;;;6127511;23;20159;-93
2022/08/19 05:12:27;;;;;;;32.80;19.50;;;16.00;99.90;;;;;;6101807;23;20200;-93
2022/08/19 05:14:56;;;;;;;30.93;18.00;;;16.00;99.90;;;;;;6126918;23;20172;-93
2022/08/19 05:17:29;;;;;;;31.97;18.37;;;16.00;99.90;;;;;;6126608;23;20487;-92
2022/08/19 05:22:54;;;;;;;34.53;18.20;;;16.20;99.90;;;;;;6126271;23;20599;-93
2022/08/19 05:25:25;;;;;;;28.90;17.27;;;16.20;99.90;;;;;;6126465;23;20172;-92
2022/08/19 05:27:54;;;;;;;30.53;17.20;;;16.30;99.90;;;;;;6101926;23;20191;-92
2022/08/19 05:30:22;;;;;;;29.83;17.13;;;16.30;99.90;;;;;;6125730;23;20241;-92
2022/08/19 05:33:02;;;;;;;33.43;16.07;;;16.40;99.90;;;;;;6101541;23;20242;-92
2022/08/19 05:35:31;;;;;;;30.87;15.80;;;16.50;99.90;;;;;;6151195;23;20236;-92
2022/08/19 05:38:02;;;;;;;32.57;15.73;;;16.50;99.90;;;;;;6102344;23;20175;-93
2022/08/19 05:40:30;;;;;;;27.17;15.40;;;16.60;99.90;;;;;;6127381;23;20168;-91
2022/08/19 05:43:03;;;;;;;28.57;16.37;;;16.60;99.90;;;;;;6101642;23;20594;-92
2022/08/19 05:45:31;;;;;;;25.30;15.87;;;16.70;99.90;;;;;;6102083;23;20176;-92
2022/08/19 05:48:04;;;;;;;27.23;16.20;;;16.80;99.90;;;;;;6102142;23;20187;-93
2022/08/19 05:50:33;;;;;;;24.00;15.63;;;16.80;99.90;;;;;;6150973;23;20196;-93
2022/08/19 05:53:01;;;;;;;26.23;15.67;;;17.00;99.90;;;;;;6101982;23;20180;-92
2022/08/19 05:55:50;;;;;;;26.83;15.30;;;17.10;99.90;;;;;;6127763;23;20169;-92
2022/08/19 05:58:19;;;;;;;25.07;14.77;;;17.30;99.90;;;;;;6103059;23;20496;-93
2022/08/19 06:00:54;;;;;;;25.70;15.37;;;17.40;99.90;;;;;;6103609;23;20257;-93
2022/08/19 06:03:23;;;;;;;22.37;14.20;;;17.50;99.90;;;;;;6104051;23;20171;-94
2022/08/19 06:05:55;;;;;;;25.03;13.73;;;17.60;99.90;;;;;;6103020;23;20162;-93
2022/08/19 06:08:23;;;;;;;23.50;14.20;;;17.60;99.90;;;;;;6102798;23;20195;-93
2022/08/19 06:11:15;;;;;;;23.63;13.70;;;17.70;99.90;;;;;;6126920;23;20244;-94
2022/08/19 06:13:46;;;;;;;25.23;13.47;;;17.80;99.90;;;;;;6126823;23;20270;-94
2022/08/19 06:16:19;;;;;;;22.43;13.83;;;17.80;99.90;;;;;;6126975;23;20178;-94
2022/08/19 06:18:51;;;;;;;25.73;13.60;;;17.90;99.90;;;;;;6127085;23;20178;-94
2022/08/19 06:21:20;;;;;;;20.83;12.80;;;18.00;99.90;;;;;;6126836;23;20174;-93
2022/08/19 06:23:51;;;;;;;22.33;13.03;;;18.10;99.90;;;;;;6151255;23;20167;-94
2022/08/19 06:26:21;;;;;;;18.63;12.37;;;18.20;99.90;;;;;;6126553;23;20194;-94
2022/08/19 06:28:50;;;;;;;21.87;13.03;;;18.30;99.90;;;;;;6151199;23;20217;-93
2022/08/19 06:31:21;;;;;;;25.47;12.43;;;18.30;99.90;;;;;;6127583;23;20171;-95
2022/08/19 06:33:51;;;;;;;19.97;12.17;;;18.40;99.90;;;;;;6126602;23;20163;-94
2022/08/19 06:36:31;;;;;;;19.47;11.40;;;18.50;99.90;;;;;;6126682;23;20162;-94
2022/08/19 06:39:03;;;;;;;19.43;10.33;;;18.50;99.90;;;;;;6151020;23;20214;-93
2022/08/19 06:41:31;;;;;;;20.30;11.20;;;18.70;99.90;;;;;;6126894;23;20221;-93
2022/08/19 06:44:00;;;;;;;21.27;11.00;;;18.80;99.90;;;;;;6102342;23;20163;-94
2022/08/19 06:46:30;;;;;;;14.10;9.83;;;19.00;99.90;;;;;;6128468;23;20173;-93
2022/08/19 06:49:10;;;;;;;16.53;9.73;;;19.10;99.90;;;;;;6127282;23;20198;-93
2022/08/19 06:56:04;;;;;;;10.67;9.03;;;19.30;99.90;;;;;;6131643;23;20555;-94
2022/08/19 06:58:33;;;;;;;18.90;9.43;;;19.60;99.90;;;;;;6105520;23;20254;-94
2022/08/19 07:01:11;;;;;;;13.27;8.37;;;19.70;99.90;;;;;;6108395;23;20174;-94
2022/08/19 07:03:40;;;;;;;11.80;8.67;;;19.90;99.90;;;;;;6133148;23;20177;-93
2022/08/19 07:06:14;;;;;;;9.70;7.67;;;20.20;99.90;;;;;;6108376;23;20174;-95
2022/08/19 07:09:05;;;;;;;12.87;7.97;;;20.20;99.90;;;;;;6105785;23;20194;-94
2022/08/19 07:11:34;;;;;;;14.37;7.40;;;20.30;99.90;;;;;;6105249;23;20253;-93
2022/08/19 07:14:06;;;;;;;9.60;6.93;;;20.20;99.90;;;;;;6130256;23;20606;-93
2022/08/19 07:16:47;;;;;;;11.33;7.17;;;20.30;99.90;;;;;;6103283;23;20171;-94
2022/08/19 07:19:17;;;;;;;8.10;7.17;;;20.40;99.90;;;;;;6102532;23;20171;-95
2022/08/19 07:21:52;;;;;;;14.50;7.77;;;20.40;99.90;;;;;;6102847;23;20156;-93
2022/08/19 07:24:24;;;;;;;14.77;7.57;;;20.40;99.90;;;;;;6103428;23;20162;-93
2022/08/19 07:26:54;;;;;;;10.57;7.50;;;20.40;99.90;;;;;;6102404;23;20607;-95
2022/08/19 07:29:24;;;;;;;10.47;7.67;;;20.50;99.90;;;;;;6127014;23;20197;-93
2022/08/19 07:31:58;;;;;;;10.03;7.73;;;20.50;99.90;;;;;;6128691;23;20163;-92
2022/08/19 07:34:30;;;;;;;12.33;7.83;;;20.50;99.90;;;;;;6103983;23;20163;-93
2022/08/19 07:37:00;;;;;;;11.60;7.90;;;20.30;99.90;;;;;;6128031;23;20262;-93
2022/08/19 07:39:31;;;;;;;11.97;7.47;;;20.40;99.90;;;;;;6127789;23;20283;-94
2022/08/19 07:42:03;;;;;;;9.50;7.20;;;20.40;99.90;;;;;;6103746;23;20174;-94
2022/08/19 07:44:34;;;;;;;13.03;7.87;;;20.40;99.90;;;;;;6128246;23;20170;-94
2022/08/19 07:47:06;;;;;;;15.57;7.97;;;20.60;99.90;;;;;;6128021;23;20163;-93
2022/08/19 07:49:55;;;;;;;11.93;8.23;;;20.60;99.90;;;;;;6104287;23;20474;-94
2022/08/19 07:52:25;;;;;;;12.57;7.63;;;20.50;99.90;;;;;;6103644;23;20166;-93
2022/08/19 07:54:53;;;;;;;12.13;7.53;;;20.40;99.90;;;;;;6103534;23;20251;-93
2022/08/19 07:57:21;;;;;;;17.73;7.60;;;20.40;99.90;;;;;;6104224;23;20229;-93
2022/08/19 07:59:50;;;;;;;13.77;7.60;;;20.40;99.90;;;;;;6103220;23;20214;-94
2022/08/19 08:02:18;;;;;;;10.27;7.40;;;20.50;99.90;;;;;;6129176;23;20664;-95
2022/08/19 08:10:20;;;;;;;13.37;7.67;;;20.60;99.90;;;;;;6103857;23;20170;-93
2022/08/19 08:12:53;;;;;;;12.00;7.60;;;20.60;99.90;;;;;;6103664;23;20163;-94
2022/08/19 08:15:39;;;;;;;13.83;8.17;;;20.60;99.90;;;;;;6104425;23;20545;-94
2022/08/19 08:18:11;;;;;;;13.30;7.73;;;20.70;99.90;;;;;;6104267;23;20637;-95
2022/08/19 08:20:41;;;;;;;12.03;8.07;;;20.80;99.90;;;;;;6103998;23;20155;-94
2022/08/19 08:26:46;;;;;;;9.97;7.13;;;20.70;99.90;;;;;;6104019;23;20657;-94
2022/08/19 08:29:30;;;;;;;10.00;6.60;;;20.80;99.90;;;;;;6129265;23;20684;-94
2022/08/19 08:32:06;;;;;;;12.17;7.50;;;20.80;99.90;;;;;;6128782;23;20196;-94
2022/08/19 08:34:42;;;;;;;11.63;7.23;;;20.90;99.90;;;;;;6103654;23;20167;-94
2022/08/19 08:37:12;;;;;;;9.67;6.93;;;20.80;99.90;;;;;;6103975;23;20178;-94
2022/08/19 08:39:43;;;;;;;13.23;7.63;;;20.90;99.90;;;;;;6103513;23;20604;-95
2022/08/19 08:42:20;;;;;;;12.80;7.37;;;21.00;99.90;;;;;;6104106;23;20171;-94
2022/08/19 08:44:55;;;;;;;12.30;7.07;;;21.10;99.90;;;;;;6127892;23;20609;-94
2022/08/19 08:47:26;;;;;;;11.23;6.80;;;21.20;99.90;;;;;;6103943;23;20170;-92
2022/08/19 08:50:05;;;;;;;7.63;6.27;;;21.20;99.90;;;;;;6129571;23;20264;-94
2022/08/19 08:52:37;;;;;;;14.30;6.87;;;21.30;99.90;;;;;;6105846;23;20213;-94
2022/08/19 08:55:11;;;;;;;11.70;6.30;;;21.30;99.90;;;;;;6105008;23;20174;-94
2022/08/19 08:57:50;;;;;;;8.33;6.50;;;21.40;99.90;;;;;;6106173;23;20184;-95
2022/08/19 09:00:25;;;;;;;11.90;6.20;;;21.40;99.90;;;;;;6081704;23;20176;-94
2022/08/19 09:02:54;;;;;;;6.60;5.77;;;21.30;99.90;;;;;;6081111;23;20172;-94
2022/08/19 09:05:28;;;;;;;9.10;5.57;;;21.40;99.90;;;;;;6081298;23;20195;-94
2022/08/19 09:08:26;;;;;;;8.50;5.83;;;21.30;99.90;;;;;;6081115;23;20190;-93
2022/08/19 09:10:58;;;;;;;12.67;6.07;;;21.30;99.90;;;;;;6127481;23;20167;-94
2022/08/19 09:13:43;;;;;;;6.80;5.17;;;21.40;99.90;;;;;;6127243;23;20246;-95
2022/08/19 09:16:15;;;;;;;6.27;5.13;;;21.50;99.90;;;;;;6078806;23;20179;-95
2022/08/19 09:18:46;;;;;;;6.43;5.60;;;21.50;99.90;;;;;;6079136;23;20239;-93
2022/08/19 09:21:15;;;;;;;8.63;5.47;;;21.60;99.90;;;;;;6103317;23;20516;-93
2022/08/19 09:23:45;;;;;;;8.53;5.47;;;21.60;99.90;;;;;;6078984;23;20171;-94
2022/08/19 09:26:24;;;;;;;9.17;5.73;;;21.60;99.90;;;;;;6079402;23;20171;-94
2022/08/19 09:29:14;;;;;;;7.90;5.57;;;21.60;99.90;;;;;;6079154;23;20179;-94
2022/08/19 09:31:45;;;;;;;10.73;5.77;;;21.60;99.90;;;;;;6103229;23;20167;-93
2022/08/19 09:34:14;;;;;;;8.80;5.37;;;21.60;99.90;;;;;;6103450;23;20495;-94
2022/08/19 09:36:49;;;;;;;6.13;5.27;;;21.70;99.90;;;;;;6127186;23;20179;-94
2022/08/19 09:39:18;;;;;;;6.40;5.73;;;21.70;99.90;;;;;;6103266;23;20172;-94
2022/08/19 09:41:49;;;;;;;9.13;5.80;;;21.60;99.90;;;;;;6103171;23;20179;-94
2022/08/19 09:44:21;;;;;;;7.77;5.33;;;21.60;99.90;;;;;;6102953;23;20610;-94
2022/08/19 09:46:51;;;;;;;6.27;5.30;;;21.60;99.90;;;;;;6079300;23;20167;-94
2022/08/19 09:49:21;;;;;;;8.20;5.43;;;21.60;99.90;;;;;;6079011;23;20195;-95
2022/08/19 09:51:55;;;;;;;7.87;6.17;;;21.60;99.90;;;;;;6103298;23;20160;-94
2022/08/19 09:54:25;;;;;;;7.03;5.37;;;21.60;99.90;;;;;;6103232;23;20192;-93
2022/08/19 09:56:54;;;;;;;7.17;5.83;;;21.70;99.90;;;;;;6102882;23;20175;-94
2022/08/19 09:59:24;;;;;;;8.33;5.50;;;21.80;99.90;;;;;;6096544;23;20203;-94
2022/08/19 10:01:53;;;;;;;6.20;5.00;;;21.90;99.90;;;;;;6103427;23;20174;-95
2022/08/19 10:07:56;;;;;;;7.83;6.03;;;21.80;99.90;;;;;;6103098;23;20251;-94
2022/08/19 10:10:25;;;;;;;6.03;5.37;;;21.90;99.90;;;;;;6103274;23;20191;-94
2022/08/19 10:12:54;;;;;;;6.10;5.50;;;22.00;99.90;;;;;;6103062;23;20525;-94
2022/08/19 10:15:25;;;;;;;8.53;6.20;;;22.00;99.90;;;;;;6103120;23;20619;-94
2022/08/19 10:17:58;;;;;;;7.00;5.93;;;22.00;99.90;;;;;;6103665;23;20526;-94
2022/08/19 10:20:29;;;;;;;8.10;6.10;;;22.00;99.90;;;;;;6103429;23;20179;-94
2022/08/19 10:22:59;;;;;;;9.30;6.10;;;22.00;99.90;;;;;;6103994;23;20172;-94
2022/08/19 10:25:29;;;;;;;9.30;5.87;;;22.10;99.90;;;;;;6104058;23;20169;-94
2022/08/19 10:27:58;;;;;;;7.13;5.47;;;22.20;99.90;;;;;;6103663;23;20182;-94
2022/08/19 10:30:28;;;;;;;6.90;5.53;;;22.30;99.90;;;;;;6128459;23;20272;-94
2022/08/19 10:32:57;;;;;;;7.83;5.30;;;22.30;99.90;;;;;;6103453;23;20599;-94
2022/08/19 10:35:29;;;;;;;5.83;5.33;;;22.40;99.90;;;;;;6104273;23;20172;-94
2022/08/19 10:38:12;;;;;;;6.77;5.07;;;22.50;99.90;;;;;;6103543;23;20225;-94
2022/08/19 10:40:41;;;;;;;5.83;5.23;;;22.60;99.90;;;;;;6104514;23;20256;-94
2022/08/19 10:43:09;;;;;;;6.83;5.60;;;22.60;99.90;;;;;;6104813;23;20168;-94
2022/08/19 10:45:40;;;;;;;7.73;5.50;;;22.60;99.90;;;;;;6104727;23;20260;-94
2022/08/19 10:48:23;;;;;;;8.00;6.10;;;22.60;99.90;;;;;;6105265;23;20192;-94
2022/08/19 10:53:34;;;;;;;6.30;5.70;;;22.60;99.90;;;;;;6106295;23;20169;-93
2022/08/19 11:00:54;;;;;;;6.33;5.37;;;22.90;99.90;;;;;;6100814;23;20604;-94
2022/08/19 11:03:47;;;;;;;7.10;5.27;;;23.40;99.90;;;;;;6051864;23;20198;-94
2022/08/19 11:10:39;;;;;;;6.30;4.50;;;24.00;99.90;;;;;;6046420;23;20202;-94
2022/08/19 11:13:45;;;;;;;4.57;4.23;;;24.20;99.90;;;;;;6075193;23;20250;-94
2022/08/19 11:21:31;;;;;;;4.37;3.97;;;24.20;99.90;;;;;;6012606;23;20184;-95
2022/08/19 11:24:25;;;;;;;6.80;4.10;;;24.10;99.90;;;;;;5989009;23;20169;-94
2022/08/19 11:27:02;;;;;;;4.87;4.40;;;24.20;99.90;;;;;;6036064;23;20198;-94
2022/08/19 11:29:31;;;;;;;4.53;4.13;;;23.90;99.90;;;;;;6076034;23;20183;-94
2022/08/19 11:32:01;;;;;;;5.07;4.50;;;23.60;99.90;;;;;;6075093;23;20178;-93
2022/08/19 11:34:30;;;;;;;4.90;4.50;;;23.50;99.90;;;;;;6099260;23;20175;-93
2022/08/19 11:37:02;;;;;;;7.13;5.83;;;23.50;99.90;;;;;;6051008;23;20176;-94
2022/08/19 11:39:36;;;;;;;20.63;6.50;;;23.50;99.90;;;;;;6052321;23;20165;-93
2022/08/19 11:42:54;;;;;;;6.53;5.93;;;23.60;99.90;;;;;;6051368;23;20234;-94
2022/08/19 11:44:56;;;;;;;7.20;6.50;;;23.90;99.90;;;;;;6050717;23;20170;-94
2022/08/19 11:47:26;;;;;;;7.40;6.67;;;24.20;99.90;;;;;;6074806;23;20198;-93
2022/08/19 11:49:54;;;;;;;6.60;5.80;;;24.40;99.90;;;;;;6075923;23;20196;-94
2022/08/19 11:52:25;;;;;;;8.50;7.67;;;24.40;99.90;;;;;;6051604;23;20621;-94
2022/08/19 11:54:53;;;;;;;8.23;7.47;;;24.50;99.90;;;;;;6076019;23;20162;-94
2022/08/19 11:57:22;;;;;;;8.53;7.43;;;24.50;99.90;;;;;;6051507;23;20171;-94
2022/08/19 11:59:52;;;;;;;6.90;6.30;;;24.50;99.90;;;;;;6086468;23;20202;-95
2022/08/19 12:02:21;;;;;;;7.50;6.80;;;24.50;99.90;;;;;;6105468;23;20197;-94
2022/08/19 12:04:50;;;;;;;8.20;6.50;;;24.50;99.90;;;;;;6105425;23;20502;-94
2022/08/19 12:07:28;;;;;;;7.07;5.93;;;24.50;99.90;;;;;;6109749;23;20175;-95
2022/08/19 12:10:05;;;;;;;6.60;5.90;;;24.60;99.90;;;;;;6107582;23;20193;-95
2022/08/19 12:12:45;;;;;;;6.13;5.53;;;24.70;99.90;;;;;;6115128;23;20162;-94
2022/08/19 12:16:12;;;;;;;4.97;4.57;;;24.70;99.90;;;;;;6140957;23;20202;-59
2022/08/19 12:18:43;;;;;;;5.00;4.67;;;25.00;99.90;;;;;;6125210;23;20169;-59
2022/08/19 12:21:13;;;;;;;5.20;4.63;;;25.00;99.90;;;;;;6151254;23;20673;-60
2022/08/19 12:23:45;;;;;;;4.10;3.80;;;25.00;99.90;;;;;;6152067;23;20200;-59
2022/08/19 12:26:13;;;;;;;5.20;4.87;;;25.10;99.90;;;;;;6152488;23;20202;-59
2022/08/19 12:28:42;;;;;;;4.63;4.23;;;25.20;99.90;;;;;;6152880;23;20175;-59
2022/08/19 12:31:12;;;;;;;5.57;5.17;;;25.20;99.90;;;;;;6149983;23;20654;-59
2022/08/19 12:33:41;;;;;;;4.90;4.60;;;25.10;99.90;;;;;;6153469;23;20830;-59
2022/08/19 12:36:11;;;;;;;6.27;5.30;;;25.00;99.90;;;;;;6149748;23;20318;-59
2022/08/19 12:38:43;;;;;;;5.00;4.70;;;24.90;99.90;;;;;;6151010;23;20181;-59
2022/08/19 12:41:15;;;;;;;5.70;5.20;;;24.90;99.90;;;;;;6147044;23;20209;-59
2022/08/19 12:43:43;;;;;;;5.17;4.83;;;24.90;99.90;;;;;;6151319;23;20197;-59
2022/08/19 12:46:12;;;;;;;6.13;5.53;;;24.90;99.90;;;;;;6147877;23;20491;-59
2022/08/19 12:48:44;;;;;;;4.67;4.37;;;24.80;99.90;;;;;;6150256;23;20258;-59
2022/08/19 12:51:15;;;;;;;4.90;4.50;;;24.70;99.90;;;;;;6141195;23;20577;-59
2022/08/19 12:53:45;;;;;;;5.30;4.80;;;24.60;99.90;;;;;;6099021;23;20212;-59
2022/08/19 12:56:15;;;;;;;5.73;4.80;;;24.40;99.90;;;;;;6123613;23;20686;-59
2022/08/19 12:58:46;;;;;;;4.57;4.20;;;24.20;99.90;;;;;;6124497;23;20169;-59
2022/08/19 13:01:17;;;;;;;5.80;4.33;;;24.20;99.90;;;;;;6123292;23;20198;-59
2022/08/19 13:03:51;;;;;;;4.83;4.40;;;24.00;99.90;;;;;;6124907;23;20217;-59
2022/08/19 13:06:20;;;;;;;4.50;4.20;;;24.20;99.90;;;;;;6122962;23;20219;-59
2022/08/19 13:08:50;;;;;;;3.60;3.40;;;24.70;99.90;;;;;;6098268;23;20636;-59
2022/08/19 13:11:24;;;;;;;3.10;2.80;;;25.30;99.90;;;;;;6124205;23;20195;-59
2022/08/19 13:13:54;;;;;;;3.20;2.90;;;25.50;99.90;;;;;;6124500;23;20204;-59
2022/08/19 13:16:23;;;;;;;2.33;2.20;;;25.60;99.90;;;;;;6124006;23;20222;-59
2022/08/19 13:18:52;;;;;;;3.10;2.30;;;25.80;99.90;;;;;;6124161;23;20167;-59
2022/08/19 13:21:22;;;;;;;2.40;2.30;;;25.80;99.90;;;;;;6124879;23;20656;-59
2022/08/19 13:23:53;;;;;;;2.43;2.30;;;25.70;99.90;;;;;;6123085;23;20558;-59
2022/08/19 13:26:22;;;;;;;2.90;2.50;;;25.60;99.90;;;;;;6122714;23;20328;-59
2022/08/19 13:34:33;;;;;;;2.37;2.20;;;26.10;99.90;;;;;;6124601;23;20175;-59
2022/08/19 13:37:03;;;;;;;2.40;1.83;;;26.10;99.90;;;;;;6121645;23;20178;-59
2022/08/19 13:39:34;;;;;;;2.17;2.00;;;25.80;99.90;;;;;;6121853;23;20167;-59
2022/08/19 13:42:04;;;;;;;2.73;2.50;;;25.70;99.90;;;;;;6123679;23;20191;-59
2022/08/19 13:44:33;;;;;;;2.40;2.20;;;25.50;99.90;;;;;;6122295;23;20421;-59
2022/08/19 13:47:06;;;;;;;3.27;2.70;;;25.30;99.90;;;;;;6124197;23;20202;-59
2022/08/19 13:49:36;;;;;;;5.53;3.20;;;24.90;99.90;;;;;;6124643;23;20198;-59
2022/08/19 13:52:06;;;;;;;3.23;3.03;;;24.70;99.90;;;;;;6123163;23;20270;-59
2022/08/19 13:54:35;;;;;;;3.70;3.50;;;24.50;99.90;;;;;;6123100;23;20201;-59
2022/08/19 13:57:04;;;;;;;4.93;3.87;;;24.20;99.90;;;;;;6123869;23;20250;-59
2022/08/19 13:59:32;;;;;;;3.93;3.73;;;24.00;99.90;;;;;;6123975;23;20253;-59
2022/08/19 14:02:01;;;;;;;4.43;4.00;;;23.90;99.90;;;;;;6124994;23;20271;-59